KLAX

Los Angeles International Airport

Los Angeles, California, USA
METAR KLAX 151553Z VRB04KT 10SM FEW200 14/01 A3007 RMK AO2 SLP182 T01390011
Observed Flight Rules
Dec-15 @ 15:53 UTC (12 minutes ago) Visual Flight Rules
Wind Visibility Clouds
Variable at 4 knots 10 miles
  • Few at 20,000' AGL
Temperatures Readings
Current 14°C / 57°F
Dewpoint 1°C / 34°F
Humidity 41%
Altimeter 30.07" Hg
Pressure 1018.2 hPa
Elevation 46
METAR KLAX 151553Z VRB04KT 10SM FEW200 14/01 A3007 RMK AO2 SLP182 T01390011
Observed Flight Rules
Dec-15 @ 15:53 UTC
(12 minutes ago)
VFR
Wind Visibility
Variable at 4 knots 10 miles
Clouds
  • Few at 20,000' AGL
Temperature Dewpoint
14°C / 57°F 1°C / 34°F
Humidity Altimeter Pressure
41% 30.07" Hg 1018.2 hPa